weather station
Area: 11014 km2
The highest point: Tok (865 m.s.l.)
Total stations: 48
Stations online: 44
Stations offline: 4
Current weather
15°C

Meteorological map - weather stations in Středočeský

. The meteorological maps show weather information from WARIO weather stations

Weather stations Středočeský

 UpdatesNameStatusTemperatureHumidityWind speedWind direction
5.7.2020 03:46Bořanovice16.8 °C66.5 %2.1 m/s SW
5.7.2020 03:47Jílové u Prahy - Borek12.6 °C85.3 %0.0 m/s NE
5.7.2020 03:47Brandýs nad Labem17.3 °C68.4 %0.7 m/s NE
5.7.2020 03:46Rakovník17.8 °C63.6 %0.0 m/s S
5.7.2020 03:47Králův Dvůr17.4 °C79.9 %1.5 m/s S
4.7.2020 00:04Chotětov16.4 °C71.9 %0.0 m/s SE
5.7.2020 03:47Dolní Břežany15.7 °C68.8 %2.9 m/s N
5.7.2020 03:47Dolní Jirčany16.3 °C70.2 %2.4 m/s SW
5.7.2020 03:46Hostín u Vojkovic16.2 °C81.4 %0.0 m/s SE
5.7.2020 03:46Hovorčovice14.2 °C84.0 %0.0 m/s S
5.7.2020 03:47Sedlčany12.8 °C92.8 %0.0 m/s E
5.7.2020 03:46Kojetice17.7 °C100.0 %0.6 m/s S
5.7.2020 03:46Krásná Hora nad Vltavou16.8 °C68.9 %0.8 m/s W
5.7.2020 03:46Květnice16.8 °C73.1 %1.5 m/s N
5.7.2020 03:47Libeř14.9 °C80.2 %0.7 m/s NW
5.7.2020 03:46Zeleneč15.3 °C80.2 %1.5 m/s S
5.7.2020 03:47Jince18.3 °C63.3 %1.4 m/s N
5.7.2020 03:47Dolní Jirčany16.1 °C74.2 %1.1 m/s S
5.7.2020 03:47Cetyně15.3 °C73.5 %2.8 m/s SW
5.7.2020 03:46Olešná16.5 °C74.3 %0.0 m/s NW
5.7.2020 03:47Srby16.9 °C78.0 %1.4 m/s W
5.7.2020 03:47Kralupy nad Vltavou18.5 °C62.7 %1.3 m/s S
5.7.2020 03:46Mrač14.9 °C80.1 %0.8 m/s S
4.7.2020 07:21Velvary17.0 °C63.2 %1.5 m/s SW
5.7.2020 03:46Mladá Boleslav17.7 °C %0.0 m/s NE
5.7.2020 03:47Mšecké Žehrovice16.0 °C74.5 %1.7 m/s W
5.7.2020 03:47Odolena voda17.8 °C65.4 %2.2 m/s S
5.7.2020 03:47Orlov16.6 °C69.9 %1.5 m/s N
5.7.2020 03:46Ostrá17.8 °C63.7 %0.8 m/s NW
5.7.2020 03:47Petrovice12.5 °C91.5 %0.8 m/s SW
5.7.2020 03:47Suchodol16.4 °C78.2 %2.2 m/s S
30.6.2020 03:59Husinec - Řež14.2 °C82.1 %0.6 m/s NE
5.7.2020 03:47Semice17.3 °C82.6 %1.4 m/s E
5.7.2020 03:47Slaný17.5 °C70.2 %1.1 m/s SE
16.6.2020 23:56Višňová14.4 °C89.7 %0.0 m/s W
5.7.2020 03:47Svojetice15.0 °C81.3 %2.5 m/s S
5.7.2020 03:47Kosmonosy14.3 °C81.5 %0.0 m/s NE
5.7.2020 03:47Roztoky14.6 °C89.7 %0.0 m/s N
5.7.2020 03:47Toušice15.4 °C79.9 %0.0 m/s SW
5.7.2020 03:47Třebsko12.9 °C90.6 %0.9 m/s NE
5.7.2020 03:47Srby16.9 °C79.5 %1.4 m/s NW
5.7.2020 03:47Unhošť16.7 °C62.2 %1.0 m/s NE
5.7.2020 03:47Vestec-40.0 °C %0.7 m/s W
5.7.2020 03:46Vrbčany16.2 °C84.8 %0.7 m/s SE
5.7.2020 03:46Všešímy13.9 °C79.6 %1.0 m/s E
5.7.2020 03:47Všetaty17.6 °C79.8 %1.4 m/s SE
5.7.2020 03:46Zibohlavy16.4 °C85.0 %0.0 m/s S
5.7.2020 03:46Divišov14.0 °C76.1 %0.7 m/s NW
Email notifications
Enter your email address to subscribe to notifications about news at warioweather.com. Your email address will not be used for any purpose other than sending these emails and will not be provided to any third party. The subscription can be ended at any time.
All data are only indicative. The portal administrator has no responsibility for potentially incorrect data and related consequences. Publishing or further sharing of content from www.warioweather.com is only allowed with written consent from WANET s.r.o.